createdAt,value
2023-02-02T00:01:00.901Z,68.50
2023-02-02T00:03:27.827Z,68.50
2023-02-02T00:05:55.001Z,68.70
2023-02-02T00:08:22.563Z,68.50
2023-02-02T00:10:50.653Z,68.50
2023-02-02T00:13:18.133Z,68.50
2023-02-02T00:15:45.233Z,68.60
2023-02-02T00:18:12.500Z,68.50
2023-02-02T00:20:39.418Z,68.50
2023-02-02T00:23:06.372Z,68.50
2023-02-02T00:25:33.573Z,68.50
2023-02-02T00:28:00.467Z,68.50
2023-02-02T00:30:27.534Z,68.70
2023-02-02T00:32:54.396Z,68.70
2023-02-02T00:35:21.416Z,68.80
2023-02-02T00:37:48.467Z,68.70
2023-02-02T00:40:15.502Z,68.60
2023-02-02T00:42:43.511Z,68.80
2023-02-02T00:45:16.565Z,68.70
2023-02-02T00:47:49.543Z,69.00
2023-02-02T00:50:22.309Z,69.20
2023-02-02T00:56:55.006Z,69.20
2023-02-02T00:59:21.883Z,69.20
2023-02-02T01:01:49.009Z,69.40
2023-02-02T01:04:15.989Z,69.30
2023-02-02T01:06:42.818Z,69.30
2023-02-02T01:09:09.744Z,69.30
2023-02-02T01:11:37.224Z,69.30
2023-02-02T01:14:04.943Z,69.20
2023-02-02T01:16:32.109Z,69.20
2023-02-02T01:18:59.054Z,69.30
2023-02-02T01:21:25.898Z,69.30
2023-02-02T01:23:52.765Z,69.10
2023-02-02T01:26:19.666Z,68.90
2023-02-02T01:28:47.185Z,68.90
2023-02-02T01:31:19.191Z,69.00
2023-02-02T01:33:47.599Z,69.20
2023-02-02T01:36:17.218Z,68.90
2023-02-02T01:38:44.401Z,69.00
2023-02-02T01:41:14.965Z,68.90
2023-02-02T01:43:41.873Z,69.00
2023-02-02T01:46:26.141Z,68.80
2023-02-02T01:49:00.827Z,68.60
2023-02-02T01:51:44.648Z,68.70
2023-02-02T01:54:17.829Z,68.60
2023-02-02T01:56:51.713Z,68.70
2023-02-02T01:59:19.278Z,68.50
2023-02-02T02:01:48.141Z,68.50
2023-02-02T02:04:15.563Z,68.50
2023-02-02T02:06:42.731Z,68.50
2023-02-02T02:09:09.655Z,68.60
2023-02-02T02:11:37.170Z,68.70
2023-02-02T02:14:27.795Z,68.80
2023-02-02T02:17:09.574Z,68.50
2023-02-02T02:20:32.788Z,68.70
2023-02-02T02:23:37.478Z,68.60
2023-02-02T02:26:42.318Z,68.70
2023-02-02T02:29:46.082Z,68.80
2023-02-02T02:32:36.753Z,69.00
2023-02-02T02:35:42.807Z,68.80
2023-02-02T02:38:15.535Z,68.70
2023-02-02T02:40:55.198Z,68.80
2023-02-02T02:43:30.986Z,68.70
2023-02-02T02:45:58.122Z,68.60
2023-02-02T02:48:25.056Z,68.60
2023-02-02T02:50:51.947Z,68.80
2023-02-02T02:53:22.347Z,68.60
2023-02-02T02:56:09.791Z,68.50
2023-02-02T02:58:43.337Z,68.70
2023-02-02T03:01:39.976Z,68.70
2023-02-02T03:04:26.526Z,68.70
2023-02-02T03:07:01.444Z,68.60
2023-02-02T03:09:34.899Z,68.60
2023-02-02T03:12:02.512Z,68.40
2023-02-02T03:14:29.539Z,68.40
2023-02-02T03:16:56.451Z,68.50
2023-02-02T03:19:23.454Z,68.40
2023-02-02T03:21:50.371Z,68.30
2023-02-02T03:24:17.337Z,68.40
2023-02-02T03:26:45.199Z,68.50
2023-02-02T03:29:12.517Z,68.50
2023-02-02T03:31:39.531Z,68.40
2023-02-02T03:34:06.449Z,68.40
2023-02-02T03:36:33.359Z,68.50
2023-02-02T03:39:00.245Z,68.40
2023-02-02T03:41:27.110Z,68.50
2023-02-02T03:43:53.929Z,68.40
2023-02-02T03:46:20.787Z,68.50
2023-02-02T03:48:47.605Z,68.70
2023-02-02T03:51:14.995Z,68.60
2023-02-02T03:53:47.601Z,68.60
2023-02-02T03:56:15.022Z,68.50
2023-02-02T03:58:41.922Z,68.50
2023-02-02T04:01:12.899Z,68.80
2023-02-02T04:03:39.875Z,68.70
2023-02-02T04:06:06.817Z,68.50
2023-02-02T04:08:34.206Z,68.70
2023-02-02T04:11:01.392Z,68.60
2023-02-02T04:13:28.280Z,68.60
2023-02-02T04:16:01.631Z,68.80
2023-02-02T04:18:29.122Z,68.70
2023-02-02T04:20:58.264Z,68.50
2023-02-02T04:23:25.556Z,68.70
2023-02-02T04:25:52.659Z,68.80
2023-02-02T04:28:20.297Z,68.90
2023-02-02T04:30:47.291Z,69.00
2023-02-02T04:33:14.223Z,68.70
2023-02-02T04:35:42.169Z,68.60
2023-02-02T04:38:10.072Z,68.60
2023-02-02T04:40:41.312Z,68.70
2023-02-02T04:43:08.303Z,68.90
2023-02-02T04:45:35.273Z,68.80
2023-02-02T04:48:03.254Z,68.90
2023-02-02T04:50:31.048Z,68.80
2023-02-02T04:52:58.150Z,68.70
2023-02-02T04:55:25.491Z,68.60
2023-02-02T04:57:52.584Z,68.60
2023-02-02T05:00:19.604Z,68.70
2023-02-02T05:02:46.518Z,68.70
2023-02-02T05:05:14.379Z,68.90
2023-02-02T05:07:41.370Z,68.80
2023-02-02T05:10:10.007Z,68.90
2023-02-02T05:12:37.123Z,68.70
2023-02-02T05:15:05.576Z,68.90
2023-02-02T05:17:32.794Z,68.80
2023-02-02T05:19:59.650Z,68.90
2023-02-02T05:22:27.008Z,68.70
2023-02-02T05:24:53.984Z,68.70
2023-02-02T05:27:20.841Z,68.80
2023-02-02T05:29:48.358Z,68.70
2023-02-02T05:32:15.734Z,68.90
2023-02-02T05:34:42.634Z,68.90
2023-02-02T05:37:09.590Z,68.80
2023-02-02T05:39:36.472Z,69.00
2023-02-02T05:42:03.402Z,69.30
2023-02-02T05:44:30.336Z,69.20
2023-02-02T05:46:57.231Z,69.30
2023-02-02T05:49:24.117Z,69.30
2023-02-02T05:51:55.206Z,69.50
2023-02-02T05:54:22.190Z,69.90
2023-02-02T05:56:50.748Z,69.70
2023-02-02T05:59:18.803Z,69.80
2023-02-02T06:01:46.519Z,69.60
2023-02-02T06:04:13.935Z,69.80
2023-02-02T06:06:42.187Z,69.80
2023-02-02T06:09:09.258Z,69.90
2023-02-02T06:11:36.220Z,70.10
2023-02-02T06:14:03.070Z,70.20
2023-02-02T06:16:30.193Z,70.20
2023-02-02T06:18:57.495Z,70.30
2023-02-02T06:21:24.787Z,70.90
2023-02-02T06:23:52.492Z,70.80
2023-02-02T06:26:19.911Z,71.00
2023-02-02T06:28:52.994Z,71.30
2023-02-02T06:31:20.945Z,71.50
2023-02-02T06:33:52.435Z,71.60
2023-02-02T06:36:19.316Z,71.60
2023-02-02T06:38:53.340Z,72.40
2023-02-02T06:41:21.062Z,71.60
2023-02-02T06:43:49.027Z,71.60
2023-02-02T06:46:16.744Z,71.80
2023-02-02T06:48:43.874Z,71.90
2023-02-02T06:51:10.867Z,71.70
2023-02-02T06:53:37.791Z,71.70
2023-02-02T06:56:07.097Z,71.90
2023-02-02T06:58:34.634Z,71.80
2023-02-02T07:01:04.316Z,71.70
2023-02-02T07:03:31.887Z,71.50
2023-02-02T07:05:58.785Z,71.50
2023-02-02T07:08:25.715Z,71.70
2023-02-02T07:11:13.349Z,71.90
2023-02-02T07:13:39.413Z,71.80
2023-02-02T07:16:07.132Z,72.10
2023-02-02T07:18:34.013Z,72.00
2023-02-02T07:21:01.533Z,71.90
2023-02-02T07:23:29.755Z,72.10
2023-02-02T07:26:08.284Z,72.10
2023-02-02T07:28:35.773Z,72.10
2023-02-02T07:31:19.756Z,72.00
2023-02-02T07:33:48.131Z,72.30
2023-02-02T07:36:18.633Z,72.30
2023-02-02T07:38:47.202Z,72.30
2023-02-02T07:41:14.935Z,72.40
2023-02-02T07:43:42.551Z,72.40
2023-02-02T07:46:12.813Z,72.60
2023-02-02T07:48:40.747Z,72.50
2023-02-02T07:51:11.224Z,72.50
2023-02-02T07:53:38.187Z,72.60
2023-02-02T07:56:10.412Z,72.40
2023-02-02T07:58:37.436Z,72.30
2023-02-02T08:01:06.008Z,72.20
2023-02-02T08:03:33.944Z,72.10
2023-02-02T08:06:00.962Z,71.80
2023-02-02T08:08:28.092Z,71.70
2023-02-02T08:10:54.969Z,71.90
2023-02-02T08:13:21.860Z,72.10
2023-02-02T08:15:48.788Z,72.20
2023-02-02T08:18:15.645Z,72.10
2023-02-02T08:20:42.528Z,71.90
2023-02-02T08:23:15.580Z,71.80
2023-02-02T08:25:42.887Z,71.80
2023-02-02T08:28:09.663Z,71.50
2023-02-02T08:30:36.597Z,71.20
2023-02-02T08:33:03.492Z,71.20
2023-02-02T08:35:30.393Z,71.10
2023-02-02T08:37:57.233Z,71.10
2023-02-02T08:40:25.323Z,71.20
2023-02-02T08:42:55.918Z,71.30
2023-02-02T08:46:01.636Z,71.20
2023-02-02T08:48:12.422Z,70.90
2023-02-02T08:50:39.772Z,70.90
2023-02-02T08:53:06.626Z,70.90
2023-02-02T08:55:33.487Z,70.50
2023-02-02T08:58:00.371Z,70.70
2023-02-02T09:00:27.338Z,70.70
2023-02-02T09:02:54.308Z,70.60
2023-02-02T09:05:21.201Z,70.50
2023-02-02T09:07:49.369Z,70.50
2023-02-02T09:10:16.804Z,70.40
2023-02-02T09:12:43.795Z,70.10
2023-02-02T09:15:12.094Z,70.00
2023-02-02T09:17:39.066Z,70.20
2023-02-02T09:20:06.770Z,70.20
2023-02-02T09:22:33.830Z,70.00
2023-02-02T09:25:00.730Z,69.90
2023-02-02T09:27:27.639Z,69.60
2023-02-02T09:29:54.521Z,69.50
2023-02-02T09:32:21.311Z,69.50
2023-02-02T09:34:48.216Z,69.40
2023-02-02T09:37:15.072Z,69.40
2023-02-02T09:39:41.879Z,69.20
2023-02-02T09:42:20.056Z,69.20
2023-02-02T09:44:59.620Z,69.50
2023-02-02T09:47:42.053Z,69.30
2023-02-02T09:50:20.631Z,69.50
2023-02-02T09:53:21.112Z,69.40
2023-02-02T09:55:51.238Z,69.30
2023-02-02T09:58:36.376Z,69.20
2023-02-02T10:01:22.885Z,69.30
2023-02-02T10:04:24.726Z,69.40
2023-02-02T10:06:58.360Z,69.20
2023-02-02T10:09:50.991Z,69.10
2023-02-02T10:12:29.545Z,69.10
2023-02-02T10:14:59.745Z,69.10
2023-02-02T10:17:38.867Z,69.00
2023-02-02T10:20:21.622Z,68.80
2023-02-02T10:22:49.833Z,68.50
2023-02-02T10:25:17.797Z,68.70
2023-02-02T10:27:59.800Z,68.70
2023-02-02T10:30:46.320Z,68.70
2023-02-02T10:33:38.001Z,68.30
2023-02-02T10:36:11.879Z,68.10
2023-02-02T10:38:46.384Z,68.40
2023-02-02T10:41:22.015Z,68.20
2023-02-02T10:44:11.614Z,68.40
2023-02-02T10:46:43.115Z,68.20
2023-02-02T10:49:16.463Z,68.10
2023-02-02T10:51:55.216Z,68.10
2023-02-02T10:54:55.834Z,68.00
2023-02-02T10:57:56.044Z,68.20
2023-02-02T11:00:26.271Z,67.70
2023-02-02T11:02:53.895Z,67.90
2023-02-02T11:05:50.021Z,67.90
2023-02-02T11:08:21.160Z,68.10
2023-02-02T11:10:52.699Z,68.20
2023-02-02T11:13:50.167Z,68.10
2023-02-02T11:16:17.021Z,67.80
2023-02-02T11:18:45.685Z,67.90
2023-02-02T11:21:21.663Z,68.00
2023-02-02T11:23:55.946Z,67.60
2023-02-02T11:26:25.427Z,67.60
2023-02-02T11:28:55.783Z,67.80
2023-02-02T11:31:36.896Z,67.40
2023-02-02T11:34:22.478Z,67.60
2023-02-02T11:37:04.108Z,67.00
2023-02-02T11:39:31.078Z,67.10
2023-02-02T11:42:12.498Z,67.10
2023-02-02T11:44:40.501Z,67.20
2023-02-02T11:47:07.532Z,67.10
2023-02-02T11:49:42.539Z,67.10
2023-02-02T11:52:20.110Z,67.20
2023-02-02T11:54:50.483Z,67.40
2023-02-02T11:57:20.855Z,67.40
2023-02-02T11:59:50.455Z,67.20
2023-02-02T12:02:20.306Z,67.10
2023-02-02T12:05:09.846Z,67.10
2023-02-02T12:07:37.595Z,67.20
2023-02-02T12:10:19.401Z,67.10
2023-02-02T12:13:02.764Z,67.10
2023-02-02T12:15:53.480Z,66.70
2023-02-02T12:18:58.019Z,66.70
2023-02-02T12:21:55.675Z,67.20
2023-02-02T12:24:33.601Z,67.00
2023-02-02T12:27:17.083Z,67.30
2023-02-02T12:29:55.378Z,66.90
2023-02-02T12:32:56.270Z,67.00
2023-02-02T12:36:07.925Z,66.40
2023-02-02T12:39:13.403Z,66.50
2023-02-02T12:42:08.222Z,66.40
2023-02-02T12:45:08.312Z,67.00
2023-02-02T12:47:43.995Z,66.70
2023-02-02T12:50:39.777Z,66.50
2023-02-02T12:53:31.671Z,66.00
2023-02-02T12:56:11.822Z,66.00
2023-02-02T12:59:01.983Z,66.50
2023-02-02T13:01:56.263Z,66.20
2023-02-02T13:04:41.362Z,66.00
2023-02-02T13:07:27.617Z,66.10
2023-02-02T13:10:20.347Z,66.10
2023-02-02T13:12:56.552Z,66.40
2023-02-02T13:15:31.126Z,66.20
2023-02-02T13:18:01.645Z,66.40
2023-02-02T13:20:49.293Z,66.40
2023-02-02T13:23:21.436Z,66.40
2023-02-02T13:26:09.111Z,66.50
2023-02-02T13:28:57.088Z,66.50
2023-02-02T13:31:43.810Z,66.60
2023-02-02T13:34:24.588Z,66.60
2023-02-02T13:36:59.549Z,66.70
2023-02-02T13:39:41.995Z,66.70
2023-02-02T13:42:47.519Z,66.80
2023-02-02T13:45:26.627Z,66.60
2023-02-02T13:48:04.402Z,67.40
2023-02-02T13:50:42.419Z,66.70
2023-02-02T13:53:39.716Z,66.60
2023-02-02T13:56:19.538Z,66.30
2023-02-02T13:59:30.721Z,66.40
2023-02-02T14:01:58.795Z,66.90
2023-02-02T14:04:30.139Z,67.40
2023-02-02T14:07:06.909Z,67.50
2023-02-02T14:09:37.091Z,67.40
2023-02-02T14:12:07.968Z,67.40
2023-02-02T14:14:38.175Z,67.20
2023-02-02T14:17:34.018Z,67.30
2023-02-02T14:20:02.386Z,67.10
2023-02-02T14:22:41.572Z,67.20
2023-02-02T14:25:29.951Z,67.20
2023-02-02T14:27:58.343Z,67.30
2023-02-02T14:30:34.549Z,67.50
2023-02-02T14:33:37.802Z,67.40
2023-02-02T14:36:12.284Z,67.70
2023-02-02T14:38:51.109Z,67.90
2023-02-02T14:41:41.010Z,68.00
2023-02-02T14:44:08.219Z,68.00
2023-02-02T14:46:39.626Z,68.10
2023-02-02T14:49:13.463Z,68.40
2023-02-02T14:51:53.250Z,69.20
2023-02-02T14:54:25.902Z,69.90
2023-02-02T14:57:00.492Z,69.60
2023-02-02T14:59:40.248Z,69.80
2023-02-02T15:02:30.480Z,69.70
2023-02-02T15:05:28.625Z,69.80
2023-02-02T15:08:06.287Z,70.10
2023-02-02T15:10:50.274Z,70.00
2023-02-02T15:13:19.062Z,70.00
2023-02-02T15:15:49.635Z,70.40
2023-02-02T15:18:25.436Z,70.40
2023-02-02T15:20:56.512Z,70.80
2023-02-02T15:23:34.233Z,71.10
2023-02-02T15:26:12.302Z,71.20
2023-02-02T15:28:47.824Z,71.20
2023-02-02T15:31:43.914Z,71.50
2023-02-02T15:34:37.867Z,71.60
2023-02-02T15:37:07.357Z,71.30
2023-02-02T15:39:41.265Z,71.40
2023-02-02T15:42:43.093Z,71.50
2023-02-02T15:45:29.335Z,71.70
2023-02-02T15:47:58.570Z,71.60
2023-02-02T15:50:26.968Z,71.70
2023-02-02T15:52:55.450Z,71.60
2023-02-02T15:55:34.794Z,71.50
2023-02-02T15:58:23.698Z,71.50
2023-02-02T16:01:06.286Z,71.50
2023-02-02T16:03:43.240Z,71.30
2023-02-02T16:06:10.647Z,71.50
2023-02-02T16:08:40.003Z,71.30
2023-02-02T16:11:14.272Z,71.20
2023-02-02T16:13:44.196Z,71.30
2023-02-02T16:16:26.827Z,71.20
2023-02-02T16:19:08.922Z,71.20
2023-02-02T16:21:42.819Z,71.20
2023-02-02T16:24:34.736Z,71.00
2023-02-02T16:27:05.589Z,71.10
2023-02-02T16:29:33.302Z,71.10
2023-02-02T16:32:00.615Z,71.10
2023-02-02T16:34:46.808Z,71.00
2023-02-02T16:37:32.403Z,71.00
2023-02-02T16:40:23.664Z,70.90
2023-02-02T16:43:05.562Z,70.90
2023-02-02T16:45:35.734Z,71.00
2023-02-02T16:48:27.870Z,70.90
2023-02-02T16:51:12.216Z,70.80
2023-02-02T16:53:39.449Z,70.70
2023-02-02T16:56:07.779Z,70.70
2023-02-02T16:58:40.759Z,70.70
2023-02-02T17:01:15.846Z,70.60
2023-02-02T17:03:54.009Z,70.60
2023-02-02T17:06:46.251Z,70.60
2023-02-02T17:09:36.262Z,70.50
2023-02-02T17:12:34.597Z,70.50
2023-02-02T17:15:28.882Z,70.30
2023-02-02T17:17:56.443Z,70.30
2023-02-02T17:20:23.886Z,70.60
2023-02-02T17:22:58.047Z,70.60
2023-02-02T17:25:35.025Z,70.70
2023-02-02T17:28:03.578Z,70.70
2023-02-02T17:30:30.739Z,70.90
2023-02-02T17:32:57.893Z,70.80
2023-02-02T17:35:28.051Z,70.90
2023-02-02T17:37:57.960Z,71.00
2023-02-02T17:40:25.223Z,71.00
2023-02-02T17:42:53.391Z,71.00
2023-02-02T17:45:24.429Z,71.00
2023-02-02T17:47:51.562Z,71.00
2023-02-02T17:50:19.275Z,71.00
2023-02-02T17:52:48.317Z,71.00
2023-02-02T17:55:37.517Z,70.90
2023-02-02T17:58:04.628Z,70.90
2023-02-02T18:00:32.355Z,71.00
2023-02-02T18:03:22.429Z,71.20
2023-02-02T18:05:49.981Z,71.10
2023-02-02T18:08:17.105Z,71.00
2023-02-02T18:10:44.394Z,71.20
2023-02-02T18:13:16.480Z,71.20
2023-02-02T18:15:44.160Z,71.20
2023-02-02T18:18:14.649Z,71.30
2023-02-02T18:20:46.770Z,71.10
2023-02-02T18:23:14.648Z,71.10
2023-02-02T18:25:41.615Z,71.10
2023-02-02T18:28:09.075Z,71.10
2023-02-02T18:30:38.695Z,71.20
2023-02-02T18:33:08.168Z,71.20
2023-02-02T18:35:36.118Z,71.30
2023-02-02T18:38:03.064Z,71.30
2023-02-02T18:40:29.860Z,71.50
2023-02-02T18:42:56.709Z,71.50
2023-02-02T18:45:23.751Z,71.70
2023-02-02T18:47:50.724Z,71.60
2023-02-02T18:50:17.663Z,71.60
2023-02-02T18:52:44.604Z,71.70
2023-02-02T18:55:11.449Z,71.70
2023-02-02T18:57:38.321Z,71.80
2023-02-02T19:00:05.818Z,71.80
2023-02-02T19:02:32.720Z,71.60
2023-02-02T19:05:18.547Z,71.60
2023-02-02T19:07:54.511Z,71.80
2023-02-02T19:10:23.669Z,71.80
2023-02-02T19:12:55.807Z,71.80
2023-02-02T19:15:23.335Z,71.80
2023-02-02T19:17:52.685Z,71.80
2023-02-02T19:20:26.758Z,71.80
2023-02-02T19:23:04.836Z,71.90
2023-02-02T19:25:31.850Z,71.90
2023-02-02T19:28:02.943Z,72.00
2023-02-02T19:30:29.779Z,71.80
2023-02-02T19:32:56.649Z,71.90
2023-02-02T19:35:26.176Z,72.00
2023-02-02T19:38:02.478Z,72.00
2023-02-02T19:40:29.473Z,72.00
2023-02-02T19:43:16.389Z,72.30
2023-02-02T19:45:44.830Z,72.20
2023-02-02T19:48:22.786Z,72.30
2023-02-02T19:50:49.596Z,72.40
2023-02-02T19:53:34.707Z,72.30
2023-02-02T19:56:02.453Z,72.20
2023-02-02T19:58:34.941Z,72.30
2023-02-02T20:01:10.356Z,72.50
2023-02-02T20:03:43.290Z,72.60
2023-02-02T20:06:19.521Z,72.60
2023-02-02T20:08:46.478Z,72.60
2023-02-02T20:11:32.906Z,72.40
2023-02-02T20:14:01.146Z,72.60
2023-02-02T20:16:37.913Z,72.50
2023-02-02T20:19:04.955Z,72.60
2023-02-02T20:21:45.705Z,72.40
2023-02-02T20:24:22.515Z,72.50
2023-02-02T20:26:51.429Z,72.60
2023-02-02T20:29:22.594Z,72.50
2023-02-02T20:31:52.268Z,72.50
2023-02-02T20:34:31.146Z,72.30
2023-02-02T20:37:13.080Z,72.40
2023-02-02T20:40:01.589Z,72.50
2023-02-02T20:42:29.290Z,72.50
2023-02-02T20:44:58.253Z,72.40
2023-02-02T20:47:25.714Z,72.50
2023-02-02T20:49:52.625Z,72.30
2023-02-02T20:52:24.213Z,72.30
2023-02-02T20:54:52.005Z,72.30
2023-02-02T20:57:19.391Z,72.30
2023-02-02T20:59:46.353Z,72.70
2023-02-02T21:02:19.669Z,72.60
2023-02-02T21:04:48.175Z,72.60
2023-02-02T21:07:17.027Z,72.60
2023-02-02T21:09:49.412Z,72.50
2023-02-02T21:12:16.944Z,72.40
2023-02-02T21:14:45.154Z,72.60
2023-02-02T21:17:15.674Z,72.80
2023-02-02T21:19:43.575Z,72.80
2023-02-02T21:22:11.074Z,72.90
2023-02-02T21:24:46.196Z,72.80
2023-02-02T21:27:13.796Z,73.70
2023-02-02T21:29:40.747Z,72.80
2023-02-02T21:32:07.842Z,72.90
2023-02-02T21:34:36.962Z,72.70
2023-02-02T21:37:03.890Z,72.60
2023-02-02T21:39:37.549Z,72.60
2023-02-02T21:42:22.290Z,72.50
2023-02-02T21:45:12.415Z,72.80
2023-02-02T21:47:48.308Z,72.70
2023-02-02T21:50:17.785Z,72.60
2023-02-02T21:52:45.648Z,72.70
2023-02-02T21:55:28.510Z,72.90
2023-02-02T21:57:58.298Z,72.90
2023-02-02T22:00:33.567Z,72.70
2023-02-02T22:03:00.648Z,72.90
2023-02-02T22:05:36.733Z,72.80
2023-02-02T22:08:25.131Z,72.90
2023-02-02T22:10:52.242Z,72.80
2023-02-02T22:13:24.971Z,72.80
2023-02-02T22:15:53.172Z,72.80
2023-02-02T22:18:25.432Z,72.80
2023-02-02T22:20:56.471Z,72.80
2023-02-02T22:23:27.521Z,72.80
2023-02-02T22:25:59.011Z,72.70
2023-02-02T22:28:42.398Z,73.00
2023-02-02T22:31:11.000Z,73.10
2023-02-02T22:33:38.102Z,73.10
2023-02-02T22:36:05.352Z,73.10
2023-02-02T22:38:32.303Z,73.00
2023-02-02T22:40:59.437Z,73.20
2023-02-02T22:43:26.354Z,73.10
2023-02-02T22:45:53.273Z,73.10
2023-02-02T22:48:20.166Z,73.10
2023-02-02T22:50:47.227Z,73.30
2023-02-02T22:53:15.493Z,73.20
2023-02-02T22:55:43.448Z,73.40
2023-02-02T22:58:10.334Z,73.20
2023-02-02T23:00:37.690Z,73.20
2023-02-02T23:03:04.781Z,73.20
2023-02-02T23:05:31.747Z,73.10
2023-02-02T23:07:58.627Z,73.00
2023-02-02T23:10:28.124Z,73.20
2023-02-02T23:12:57.755Z,73.20
2023-02-02T23:15:24.820Z,73.40
2023-02-02T23:17:51.718Z,73.30
2023-02-02T23:20:19.106Z,73.20
2023-02-02T23:22:46.629Z,73.20
2023-02-02T23:25:14.522Z,73.10
2023-02-02T23:27:41.783Z,73.40
2023-02-02T23:30:10.200Z,73.40
2023-02-02T23:32:37.039Z,73.40
2023-02-02T23:35:04.811Z,73.30
2023-02-02T23:37:32.342Z,73.30
2023-02-02T23:39:59.487Z,73.10
2023-02-02T23:42:26.511Z,73.20
2023-02-02T23:44:53.337Z,73.00
2023-02-02T23:47:20.270Z,73.00
2023-02-02T23:49:47.384Z,73.00
2023-02-02T23:52:14.800Z,72.90
2023-02-02T23:54:42.195Z,72.90
2023-02-02T23:57:09.529Z,72.90
2023-02-02T23:59:36.453Z,73.20
